Helga — ERBD — position and weather

sailwx.info

Track history (hours):
 
Tides and Currents Weather Stations Pressure Air Temp Water Temp Dewpoint Dewpoint Depression Visibility Wind Speed Wind Dir Waves Ship Positions

Helga

Last reported at 2017-Dec-04 02:24 UTC. Time now 2017-Dec-15 15:47 UTC.
Position N 44°29' E 037°39'.
Warning: this ship's position is 11 days out of date.

Length 79 m; draft 3.5 m.

Type: Ship. MMSI: 214180204.

Date/timePositionNaut miles runAvg speedWind from/ knotsBaromVisibWave heightAir tempDewpointWater temp
2017-Dec-04 02:24N 44°29' E 037°39'3 7.1
2017-Dec-04 02:00N 44°31' E 037°41'4 7.1
2017-Dec-04 01:30N 44°34' E 037°44'4 7.2
2017-Dec-04 01:00N 44°37' E 037°48'3 7.0
2017-Dec-04 00:30N 44°39' E 037°51'3 6.6
2017-Dec-04 00:00N 44°42' E 037°49'1 2.4
2017-Dec-03 23:30N 44°44' E 037°48'0 0.0
2017-Dec-03 23:00N 44°44' E 037°48'0 0.0
2017-Dec-03 22:30N 44°44' E 037°48'0 0.0
2017-Dec-03 21:57N 44°44' E 037°48'0 0.0
2017-Dec-03 21:30N 44°44' E 037°48'0 0.0
2017-Dec-03 21:00N 44°44' E 037°48'0 0.0
2017-Dec-03 20:30N 44°44' E 037°48'0 0.0
2017-Dec-03 20:00N 44°44' E 037°48'0 0.0
2017-Dec-03 19:30N 44°44' E 037°48'0 0.0
2017-Dec-03 19:00N 44°44' E 037°48'0 0.0
2017-Dec-03 18:30N 44°44' E 037°48'0 0.0
2017-Dec-03 18:00N 44°44' E 037°48'0 0.0
2017-Dec-03 17:30N 44°44' E 037°48'0 0.0
2017-Dec-03 17:00N 44°44' E 037°48'0 0.0
2017-Dec-03 16:30N 44°44' E 037°48'0 0.0
2017-Dec-03 16:00N 44°44' E 037°48'0 0.0
2017-Dec-03 15:30N 44°44' E 037°48'0 0.0
2017-Dec-03 15:00N 44°44' E 037°49'0 0.0
2017-Dec-03 14:30N 44°44' E 037°49'0 0.0
2017-Dec-03 14:00N 44°44' E 037°48'0 0.0
2017-Dec-03 13:30N 44°44' E 037°49'0 0.0
2017-Dec-03 13:00N 44°44' E 037°48'0 0.0
2017-Dec-03 12:30N 44°44' E 037°48'0 0.0
2017-Dec-03 12:00N 44°44' E 037°48'0 0.0
2017-Dec-03 11:30N 44°44' E 037°48'0 0.0
2017-Dec-03 11:00N 44°44' E 037°48'0 0.0
2017-Dec-03 10:30N 44°44' E 037°48'0 0.0
2017-Dec-03 10:00N 44°44' E 037°48'0 0.0
2017-Dec-03 09:30N 44°44' E 037°48'0 0.0
2017-Dec-03 09:00N 44°44' E 037°48'0 0.0
2017-Dec-03 08:30N 44°44' E 037°48'0 0.0
2017-Dec-03 08:00N 44°44' E 037°48'0 0.0
2017-Dec-03 07:29N 44°44' E 037°48'0 0.0
2017-Dec-03 06:59N 44°44' E 037°48'0 0.0
2017-Dec-03 06:29N 44°44' E 037°48'0 0.0
2017-Dec-03 05:59N 44°44' E 037°48'0 0.0
2017-Dec-03 05:29N 44°44' E 037°48'0 0.0
2017-Dec-03 04:59N 44°44' E 037°49'0 0.0
2017-Dec-03 04:29N 44°44' E 037°48'0 0.0
2017-Dec-03 03:59N 44°44' E 037°48'0 0.0
2017-Dec-03 03:29N 44°44' E 037°48'0 0.0
2017-Dec-03 02:59N 44°44' E 037°48'0 0.0
2017-Dec-03 02:29N 44°44' E 037°48'0 0.0
2017-Dec-03 01:59N 44°44' E 037°48'0 0.0
2017-Dec-03 01:29N 44°44' E 037°48'0 0.0
2017-Dec-03 00:59N 44°44' E 037°48'0 0.0
2017-Dec-03 00:29N 44°44' E 037°48'0 0.0
2017-Dec-02 23:59N 44°44' E 037°49'0 0.0
2017-Dec-02 23:29N 44°44' E 037°48'0 0.0
2017-Dec-02 22:59N 44°44' E 037°48'0 0.0
2017-Dec-02 22:29N 44°44' E 037°48'0 0.0
2017-Dec-02 21:59N 44°44' E 037°48'0 1.0
2017-Dec-02 21:31N 44°43' E 037°48'4 7.4
2017-Dec-02 21:00N 44°40' E 037°50'2 4.8
2017-Dec-02 20:30N 44°39' E 037°53'0 0.1
2017-Dec-02 19:59N 44°39' E 037°54'0 0.0
2017-Dec-02 19:29N 44°39' E 037°54'0 0.1
2017-Dec-02 18:56N 44°39' E 037°53'0 0.0
2017-Dec-02 18:14N 44°39' E 037°53'0 0.0
2017-Dec-02 17:23N 44°39' E 037°54'0 0.0
2017-Dec-02 16:59N 44°39' E 037°54'0 0.0
2017-Dec-02 16:14N 44°39' E 037°54'0 0.1
2017-Dec-02 15:59N 44°39' E 037°54'0 0.0
2017-Dec-02 15:29N 44°39' E 037°54'0 0.0
2017-Dec-02 14:59N 44°39' E 037°54'0 0.0
2017-Dec-02 14:29N 44°39' E 037°54'0 0.0
2017-Dec-02 13:59N 44°39' E 037°54'0 0.0
2017-Dec-02 13:29N 44°39' E 037°54'0 0.0
2017-Dec-02 12:59N 44°39' E 037°54'0 0.0
2017-Dec-02 12:29N 44°39' E 037°54'0 0.0
2017-Dec-02 11:59N 44°39' E 037°54'0 0.0
2017-Dec-02 11:29N 44°39' E 037°54'0 0.0
2017-Dec-02 10:59N 44°39' E 037°54'0 0.0
2017-Dec-02 10:29N 44°39' E 037°54'0 0.0
2017-Dec-02 09:59N 44°39' E 037°54'0 0.0
2017-Dec-02 09:29N 44°39' E 037°54'0 0.0
2017-Dec-02 08:59N 44°39' E 037°54'0 0.0
2017-Dec-02 08:29N 44°39' E 037°54'0 0.1
2017-Dec-02 07:59N 44°39' E 037°54'0 0.0
2017-Dec-02 07:29N 44°39' E 037°54'0 0.0
2017-Dec-02 06:59N 44°39' E 037°54'0 0.0
2017-Dec-02 06:29N 44°39' E 037°54'0 0.0
2017-Dec-02 05:59N 44°39' E 037°54'0 0.0
2017-Dec-02 05:29N 44°39' E 037°54'0 0.0
2017-Dec-02 04:59N 44°39' E 037°54'0 0.0
2017-Dec-02 04:26N 44°39' E 037°54'0 0.0
2017-Dec-02 03:59N 44°39' E 037°54'0 0.0
2017-Dec-02 03:29N 44°39' E 037°54'0 0.0
2017-Dec-02 02:59N 44°39' E 037°54'0 0.0
2017-Dec-02 02:29N 44°39' E 037°54'0 0.0
2017-Dec-02 01:59N 44°39' E 037°54'0 0.0
2017-Dec-02 01:26N 44°39' E 037°53'0 0.1
2017-Dec-02 00:59N 44°39' E 037°54'0 0.0
2017-Dec-02 00:29N 44°39' E 037°54'0 0.0
2017-Dec-01 23:59N 44°39' E 037°54'0 0.0
2017-Dec-01 23:29N 44°39' E 037°54'0 0.0
2017-Dec-01 22:59N 44°39' E 037°54'0 0.0
2017-Dec-01 22:29N 44°39' E 037°54'0 0.0
2017-Dec-01 21:59N 44°39' E 037°54'0 0.0
2017-Dec-01 21:29N 44°39' E 037°54'0 0.0
2017-Dec-01 20:59N 44°39' E 037°54'0 0.0
2017-Dec-01 20:29N 44°39' E 037°54'0 0.0
2017-Dec-01 19:58N 44°39' E 037°54'0 0.0
2017-Dec-01 19:28N 44°39' E 037°54'0 0.0
2017-Dec-01 18:58N 44°39' E 037°54'0 0.0
2017-Dec-01 18:28N 44°39' E 037°54'0 0.0
2017-Dec-01 17:58N 44°39' E 037°54'0 0.1
2017-Dec-01 17:28N 44°39' E 037°54'0 0.0
2017-Dec-01 16:58N 44°39' E 037°54'0 0.0
2017-Dec-01 16:28N 44°39' E 037°54'0 0.0
2017-Dec-01 15:58N 44°39' E 037°54'0 0.0
2017-Dec-01 15:22N 44°39' E 037°54'0 0.0
2017-Dec-01 14:58N 44°39' E 037°54'0 0.0
2017-Dec-01 14:25N 44°39' E 037°54'0 0.0
2017-Dec-01 13:58N 44°39' E 037°54'0 0.0
2017-Dec-01 13:25N 44°39' E 037°54'0 0.0
2017-Dec-01 12:58N 44°39' E 037°54'0 0.0
2017-Dec-01 12:28N 44°39' E 037°54'0 0.0
2017-Dec-01 11:58N 44°39' E 037°54'0 0.0
2017-Dec-01 11:28N 44°39' E 037°54'0 0.0
2017-Dec-01 10:58N 44°39' E 037°54'0 0.0
2017-Dec-01 10:28N 44°39' E 037°54'0 0.0
2017-Dec-01 09:58N 44°39' E 037°54'0 0.0
2017-Dec-01 09:28N 44°39' E 037°54'0 0.0
2017-Dec-01 08:58N 44°39' E 037°54'0 0.0
2017-Dec-01 08:28N 44°39' E 037°54'0 0.0
2017-Dec-01 07:58N 44°39' E 037°54'0 0.0
2017-Dec-01 07:28N 44°39' E 037°54'0 0.0
2017-Dec-01 06:58N 44°39' E 037°54'0 0.0
2017-Dec-01 06:28N 44°39' E 037°54'0 0.0
2017-Dec-01 05:58N 44°39' E 037°54'0 0.0
2017-Dec-01 05:28N 44°39' E 037°54'0 0.0
2017-Dec-01 04:58N 44°39' E 037°54'0 0.0
2017-Dec-01 04:28N 44°39' E 037°54'0 0.0
2017-Dec-01 03:58N 44°39' E 037°54'0 0.1
2017-Dec-01 03:28N 44°39' E 037°54'0 0.0
2017-Dec-01 02:58N 44°39' E 037°54'0 0.0
2017-Dec-01 02:28N 44°39' E 037°54'0 0.0
2017-Dec-01 01:55N 44°39' E 037°54'0 0.0
2017-Dec-01 01:28N 44°39' E 037°54'0 0.0
2017-Dec-01 00:55N 44°39' E 037°54'0 0.1
2017-Dec-01 00:28N 44°39' E 037°54'0 0.0
2017-Nov-30 23:58N 44°39' E 037°54'0 0.0
2017-Nov-30 23:28N 44°39' E 037°54'0 0.0
2017-Nov-30 22:58N 44°39' E 037°54'0 0.0
2017-Nov-30 22:28N 44°39' E 037°54'0 0.0
2017-Nov-30 21:58N 44°39' E 037°54'0 0.0
2017-Nov-30 21:28N 44°39' E 037°54'0 0.0
2017-Nov-30 20:58N 44°39' E 037°54'0 0.0
2017-Nov-30 20:28N 44°39' E 037°54'0 0.0
2017-Nov-30 19:58N 44°39' E 037°54'0 0.0
2017-Nov-30 19:28N 44°39' E 037°54'0 0.0
2017-Nov-30 18:58N 44°39' E 037°54'0 0.0
2017-Nov-30 18:28N 44°39' E 037°54'0 0.0
2017-Nov-30 17:58N 44°39' E 037°54'0 0.1
2017-Nov-30 17:28N 44°39' E 037°54'0 0.0
2017-Nov-30 16:58N 44°39' E 037°54'0 0.0
2017-Nov-30 16:28N 44°39' E 037°54'0 0.0
2017-Nov-30 16:00N 44°39' E 037°54'0 0.0
2017-Nov-30 15:30N 44°39' E 037°54'0 0.0
2017-Nov-30 15:00N 44°39' E 037°54'0 0.0
2017-Nov-30 14:30N 44°39' E 037°54'0 0.0
2017-Nov-30 14:00N 44°39' E 037°54'0 0.0
2017-Nov-30 13:30N 44°39' E 037°54'0 0.0
2017-Nov-30 13:00N 44°39' E 037°54'0 0.0
2017-Nov-30 12:30N 44°39' E 037°54'0 0.0
2017-Nov-30 12:00N 44°39' E 037°54'0 0.0
2017-Nov-30 11:30N 44°39' E 037°54'0 0.0
2017-Nov-30 11:00N 44°39' E 037°54'0 0.0
2017-Nov-30 10:30N 44°39' E 037°54'0 0.0
2017-Nov-30 10:00N 44°39' E 037°54'0 0.0
2017-Nov-30 09:30N 44°39' E 037°54'0 0.0
2017-Nov-30 09:00N 44°39' E 037°54'0 0.0
2017-Nov-30 08:30N 44°39' E 037°54'0 0.0
2017-Nov-30 08:00N 44°39' E 037°54'0 0.0
2017-Nov-30 07:30N 44°39' E 037°54'0 0.0
2017-Nov-30 06:57N 44°39' E 037°54'0 0.0
2017-Nov-30 06:30N 44°39' E 037°54'0 0.0
2017-Nov-30 06:00N 44°39' E 037°54'0 0.0
2017-Nov-30 05:30N 44°39' E 037°54'0 0.0
2017-Nov-30 05:00N 44°39' E 037°54'0 0.0
2017-Nov-30 04:30N 44°39' E 037°54'0 0.0
2017-Nov-30 04:00N 44°39' E 037°54'0 0.0
2017-Nov-30 03:30N 44°39' E 037°54'0 0.0
2017-Nov-30 03:00N 44°39' E 037°54'0 0.1
2017-Nov-30 02:30N 44°39' E 037°54'0 0.0
2017-Nov-30 02:00N 44°39' E 037°54'0 0.0
2017-Nov-30 01:30N 44°39' E 037°54'0 0.0
2017-Nov-30 01:00N 44°39' E 037°54'0 0.0
2017-Nov-30 00:27N 44°39' E 037°54'0 0.0
2017-Nov-30 00:00N 44°39' E 037°54'0 0.0
2017-Nov-29 23:30N 44°39' E 037°54'0 0.0
2017-Nov-29 23:00N 44°39' E 037°54'0 0.1
2017-Nov-29 22:30N 44°39' E 037°54'0 0.0
2017-Nov-29 22:00N 44°39' E 037°54'0 0.0
2017-Nov-29 21:30N 44°39' E 037°54'0 0.1
2017-Nov-29 21:00N 44°39' E 037°54'0 0.0
2017-Nov-29 20:30N 44°39' E 037°54'0 0.0
2017-Nov-29 19:54N 44°39' E 037°54'0 0.0
2017-Nov-29 19:30N 44°39' E 037°54'0 0.0
2017-Nov-29 19:00N 44°39' E 037°54'0 0.0
2017-Nov-29 18:28N 44°39' E 037°54'0 0.0
2017-Nov-29 18:00N 44°39' E 037°54'0 0.0
2017-Nov-29 17:30N 44°39' E 037°54'0 0.0
2017-Nov-29 17:00N 44°39' E 037°54'0 0.0
2017-Nov-29 16:30N 44°39' E 037°54'0 0.0
2017-Nov-29 16:00N 44°39' E 037°54'0 0.0
2017-Nov-29 15:30N 44°39' E 037°54'0 0.0
2017-Nov-29 15:00N 44°39' E 037°54'0 0.0
2017-Nov-29 14:30N 44°39' E 037°54'0 0.0
2017-Nov-29 14:00N 44°39' E 037°54'0 0.0
2017-Nov-29 13:30N 44°39' E 037°54'0 0.0
2017-Nov-29 13:00N 44°39' E 037°54'0 0.1
2017-Nov-29 12:30N 44°39' E 037°54'2 4.6
2017-Nov-29 12:00N 44°37' E 037°52'4 8.7
2017-Nov-29 11:30N 44°33' E 037°52'4 7.4
2017-Nov-29 11:00N 44°31' E 037°47'3 6.4
2017-Nov-29 10:30N 44°29' E 037°43'3 6.4
2017-Nov-29 10:00N 44°28' E 037°39'  
Track history (hours):
 
Tides and Currents Weather Stations Pressure Air Temp Water Temp Dewpoint Dewpoint Depression Visibility Wind Speed Wind Dir Waves Ship Positions

Helga

Last reported at 2017-Dec-04 02:24 UTC. Time now 2017-Dec-15 15:47 UTC.
Position N 44°29' E 037°39'.
Warning: this ship's position is 11 days out of date.

Length 79 m; draft 3.5 m.

Type: Ship. MMSI: 214180204.

Date/timePositionNaut miles runAvg speedWind from/ knotsBaromVisibWave heightAir tempDewpointWater temp
2017-Dec-04 02:24N 44°29' E 037°39'3 7.1
2017-Dec-04 02:00N 44°31' E 037°41'4 7.1
2017-Dec-04 01:30N 44°34' E 037°44'4 7.2
2017-Dec-04 01:00N 44°37' E 037°48'3 7.0
2017-Dec-04 00:30N 44°39' E 037°51'3 6.6
2017-Dec-04 00:00N 44°42' E 037°49'1 2.4
2017-Dec-03 23:30N 44°44' E 037°48'0 0.0
2017-Dec-03 23:00N 44°44' E 037°48'0 0.0
2017-Dec-03 22:30N 44°44' E 037°48'0 0.0
2017-Dec-03 21:57N 44°44' E 037°48'0 0.0
2017-Dec-03 21:30N 44°44' E 037°48'0 0.0
2017-Dec-03 21:00N 44°44' E 037°48'0 0.0
2017-Dec-03 20:30N 44°44' E 037°48'0 0.0
2017-Dec-03 20:00N 44°44' E 037°48'0 0.0
2017-Dec-03 19:30N 44°44' E 037°48'0 0.0
2017-Dec-03 19:00N 44°44' E 037°48'0 0.0
2017-Dec-03 18:30N 44°44' E 037°48'0 0.0
2017-Dec-03 18:00N 44°44' E 037°48'0 0.0
2017-Dec-03 17:30N 44°44' E 037°48'0 0.0
2017-Dec-03 17:00N 44°44' E 037°48'0 0.0
2017-Dec-03 16:30N 44°44' E 037°48'0 0.0
2017-Dec-03 16:00N 44°44' E 037°48'0 0.0
2017-Dec-03 15:30N 44°44' E 037°48'0 0.0
2017-Dec-03 15:00N 44°44' E 037°49'0 0.0
2017-Dec-03 14:30N 44°44' E 037°49'0 0.0
2017-Dec-03 14:00N 44°44' E 037°48'0 0.0
2017-Dec-03 13:30N 44°44' E 037°49'0 0.0
2017-Dec-03 13:00N 44°44' E 037°48'0 0.0
2017-Dec-03 12:30N 44°44' E 037°48'0 0.0
2017-Dec-03 12:00N 44°44' E 037°48'0 0.0
2017-Dec-03 11:30N 44°44' E 037°48'0 0.0
2017-Dec-03 11:00N 44°44' E 037°48'0 0.0
2017-Dec-03 10:30N 44°44' E 037°48'0 0.0
2017-Dec-03 10:00N 44°44' E 037°48'0 0.0
2017-Dec-03 09:30N 44°44' E 037°48'0 0.0
2017-Dec-03 09:00N 44°44' E 037°48'0 0.0
2017-Dec-03 08:30N 44°44' E 037°48'0 0.0
2017-Dec-03 08:00N 44°44' E 037°48'0 0.0
2017-Dec-03 07:29N 44°44' E 037°48'0 0.0
2017-Dec-03 06:59N 44°44' E 037°48'0 0.0
2017-Dec-03 06:29N 44°44' E 037°48'0 0.0
2017-Dec-03 05:59N 44°44' E 037°48'0 0.0
2017-Dec-03 05:29N 44°44' E 037°48'0 0.0
2017-Dec-03 04:59N 44°44' E 037°49'0 0.0
2017-Dec-03 04:29N 44°44' E 037°48'0 0.0
2017-Dec-03 03:59N 44°44' E 037°48'0 0.0
2017-Dec-03 03:29N 44°44' E 037°48'0 0.0
2017-Dec-03 02:59N 44°44' E 037°48'0 0.0
2017-Dec-03 02:29N 44°44' E 037°48'0 0.0
2017-Dec-03 01:59N 44°44' E 037°48'0 0.0
2017-Dec-03 01:29N 44°44' E 037°48'0 0.0
2017-Dec-03 00:59N 44°44' E 037°48'0 0.0
2017-Dec-03 00:29N 44°44' E 037°48'0 0.0
2017-Dec-02 23:59N 44°44' E 037°49'0 0.0
2017-Dec-02 23:29N 44°44' E 037°48'0 0.0
2017-Dec-02 22:59N 44°44' E 037°48'0 0.0
2017-Dec-02 22:29N 44°44' E 037°48'0 0.0
2017-Dec-02 21:59N 44°44' E 037°48'0 1.0
2017-Dec-02 21:31N 44°43' E 037°48'4 7.4
2017-Dec-02 21:00N 44°40' E 037°50'2 4.8
2017-Dec-02 20:30N 44°39' E 037°53'0 0.1
2017-Dec-02 19:59N 44°39' E 037°54'0 0.0
2017-Dec-02 19:29N 44°39' E 037°54'0 0.1
2017-Dec-02 18:56N 44°39' E 037°53'0 0.0
2017-Dec-02 18:14N 44°39' E 037°53'0 0.0
2017-Dec-02 17:23N 44°39' E 037°54'0 0.0
2017-Dec-02 16:59N 44°39' E 037°54'0 0.0
2017-Dec-02 16:14N 44°39' E 037°54'0 0.1
2017-Dec-02 15:59N 44°39' E 037°54'0 0.0
2017-Dec-02 15:29N 44°39' E 037°54'0 0.0
2017-Dec-02 14:59N 44°39' E 037°54'0 0.0
2017-Dec-02 14:29N 44°39' E 037°54'0 0.0
2017-Dec-02 13:59N 44°39' E 037°54'0 0.0
2017-Dec-02 13:29N 44°39' E 037°54'0 0.0
2017-Dec-02 12:59N 44°39' E 037°54'0 0.0
2017-Dec-02 12:29N 44°39' E 037°54'0 0.0
2017-Dec-02 11:59N 44°39' E 037°54'0 0.0
2017-Dec-02 11:29N 44°39' E 037°54'0 0.0
2017-Dec-02 10:59N 44°39' E 037°54'0 0.0
2017-Dec-02 10:29N 44°39' E 037°54'0 0.0
2017-Dec-02 09:59N 44°39' E 037°54'0 0.0
2017-Dec-02 09:29N 44°39' E 037°54'0 0.0
2017-Dec-02 08:59N 44°39' E 037°54'0 0.0
2017-Dec-02 08:29N 44°39' E 037°54'0 0.1
2017-Dec-02 07:59N 44°39' E 037°54'0 0.0
2017-Dec-02 07:29N 44°39' E 037°54'0 0.0
2017-Dec-02 06:59N 44°39' E 037°54'0 0.0
2017-Dec-02 06:29N 44°39' E 037°54'0 0.0
2017-Dec-02 05:59N 44°39' E 037°54'0 0.0
2017-Dec-02 05:29N 44°39' E 037°54'0 0.0
2017-Dec-02 04:59N 44°39' E 037°54'0 0.0
2017-Dec-02 04:26N 44°39' E 037°54'0 0.0
2017-Dec-02 03:59N 44°39' E 037°54'0 0.0
2017-Dec-02 03:29N 44°39' E 037°54'0 0.0
2017-Dec-02 02:59N 44°39' E 037°54'0 0.0
2017-Dec-02 02:29N 44°39' E 037°54'0 0.0
2017-Dec-02 01:59N 44°39' E 037°54'0 0.0
2017-Dec-02 01:26N 44°39' E 037°53'0 0.1
2017-Dec-02 00:59N 44°39' E 037°54'0 0.0
2017-Dec-02 00:29N 44°39' E 037°54'0 0.0
2017-Dec-01 23:59N 44°39' E 037°54'0 0.0
2017-Dec-01 23:29N 44°39' E 037°54'0 0.0
2017-Dec-01 22:59N 44°39' E 037°54'0 0.0
2017-Dec-01 22:29N 44°39' E 037°54'0 0.0
2017-Dec-01 21:59N 44°39' E 037°54'0 0.0
2017-Dec-01 21:29N 44°39' E 037°54'0 0.0
2017-Dec-01 20:59N 44°39' E 037°54'0 0.0
2017-Dec-01 20:29N 44°39' E 037°54'0 0.0
2017-Dec-01 19:58N 44°39' E 037°54'0 0.0
2017-Dec-01 19:28N 44°39' E 037°54'0 0.0
2017-Dec-01 18:58N 44°39' E 037°54'0 0.0
2017-Dec-01 18:28N 44°39' E 037°54'0 0.0
2017-Dec-01 17:58N 44°39' E 037°54'0 0.1
2017-Dec-01 17:28N 44°39' E 037°54'0 0.0
2017-Dec-01 16:58N 44°39' E 037°54'0 0.0
2017-Dec-01 16:28N 44°39' E 037°54'0 0.0
2017-Dec-01 15:58N 44°39' E 037°54'0 0.0
2017-Dec-01 15:22N 44°39' E 037°54'0 0.0
2017-Dec-01 14:58N 44°39' E 037°54'0 0.0
2017-Dec-01 14:25N 44°39' E 037°54'0 0.0
2017-Dec-01 13:58N 44°39' E 037°54'0 0.0
2017-Dec-01 13:25N 44°39' E 037°54'0 0.0
2017-Dec-01 12:58N 44°39' E 037°54'0 0.0
2017-Dec-01 12:28N 44°39' E 037°54'0 0.0
2017-Dec-01 11:58N 44°39' E 037°54'0 0.0
2017-Dec-01 11:28N 44°39' E 037°54'0 0.0
2017-Dec-01 10:58N 44°39' E 037°54'0 0.0
2017-Dec-01 10:28N 44°39' E 037°54'0 0.0
2017-Dec-01 09:58N 44°39' E 037°54'0 0.0
2017-Dec-01 09:28N 44°39' E 037°54'0 0.0
2017-Dec-01 08:58N 44°39' E 037°54'0 0.0
2017-Dec-01 08:28N 44°39' E 037°54'0 0.0
2017-Dec-01 07:58N 44°39' E 037°54'0 0.0
2017-Dec-01 07:28N 44°39' E 037°54'0 0.0
2017-Dec-01 06:58N 44°39' E 037°54'0 0.0
2017-Dec-01 06:28N 44°39' E 037°54'0 0.0
2017-Dec-01 05:58N 44°39' E 037°54'0 0.0
2017-Dec-01 05:28N 44°39' E 037°54'0 0.0
2017-Dec-01 04:58N 44°39' E 037°54'0 0.0
2017-Dec-01 04:28N 44°39' E 037°54'0 0.0
2017-Dec-01 03:58N 44°39' E 037°54'0 0.1
2017-Dec-01 03:28N 44°39' E 037°54'0 0.0
2017-Dec-01 02:58N 44°39' E 037°54'0 0.0
2017-Dec-01 02:28N 44°39' E 037°54'0 0.0
2017-Dec-01 01:55N 44°39' E 037°54'0 0.0
2017-Dec-01 01:28N 44°39' E 037°54'0 0.0
2017-Dec-01 00:55N 44°39' E 037°54'0 0.1
2017-Dec-01 00:28N 44°39' E 037°54'0 0.0
2017-Nov-30 23:58N 44°39' E 037°54'0 0.0
2017-Nov-30 23:28N 44°39' E 037°54'0 0.0
2017-Nov-30 22:58N 44°39' E 037°54'0 0.0
2017-Nov-30 22:28N 44°39' E 037°54'0 0.0
2017-Nov-30 21:58N 44°39' E 037°54'0 0.0
2017-Nov-30 21:28N 44°39' E 037°54'0 0.0
2017-Nov-30 20:58N 44°39' E 037°54'0 0.0
2017-Nov-30 20:28N 44°39' E 037°54'0 0.0
2017-Nov-30 19:58N 44°39' E 037°54'0 0.0
2017-Nov-30 19:28N 44°39' E 037°54'0 0.0
2017-Nov-30 18:58N 44°39' E 037°54'0 0.0
2017-Nov-30 18:28N 44°39' E 037°54'0 0.0
2017-Nov-30 17:58N 44°39' E 037°54'0 0.1
2017-Nov-30 17:28N 44°39' E 037°54'0 0.0
2017-Nov-30 16:58N 44°39' E 037°54'0 0.0
2017-Nov-30 16:28N 44°39' E 037°54'0 0.0
2017-Nov-30 16:00N 44°39' E 037°54'0 0.0
2017-Nov-30 15:30N 44°39' E 037°54'0 0.0
2017-Nov-30 15:00N 44°39' E 037°54'0 0.0
2017-Nov-30 14:30N 44°39' E 037°54'0 0.0
2017-Nov-30 14:00N 44°39' E 037°54'0 0.0
2017-Nov-30 13:30N 44°39' E 037°54'0 0.0
2017-Nov-30 13:00N 44°39' E 037°54'0 0.0
2017-Nov-30 12:30N 44°39' E 037°54'0 0.0
2017-Nov-30 12:00N 44°39' E 037°54'0 0.0
2017-Nov-30 11:30N 44°39' E 037°54'0 0.0
2017-Nov-30 11:00N 44°39' E 037°54'0 0.0
2017-Nov-30 10:30N 44°39' E 037°54'0 0.0
2017-Nov-30 10:00N 44°39' E 037°54'0 0.0
2017-Nov-30 09:30N 44°39' E 037°54'0 0.0
2017-Nov-30 09:00N 44°39' E 037°54'0 0.0
2017-Nov-30 08:30N 44°39' E 037°54'0 0.0
2017-Nov-30 08:00N 44°39' E 037°54'0 0.0
2017-Nov-30 07:30N 44°39' E 037°54'0 0.0
2017-Nov-30 06:57N 44°39' E 037°54'0 0.0
2017-Nov-30 06:30N 44°39' E 037°54'0 0.0
2017-Nov-30 06:00N 44°39' E 037°54'0 0.0
2017-Nov-30 05:30N 44°39' E 037°54'0 0.0
2017-Nov-30 05:00N 44°39' E 037°54'0 0.0
2017-Nov-30 04:30N 44°39' E 037°54'0 0.0
2017-Nov-30 04:00N 44°39' E 037°54'0 0.0
2017-Nov-30 03:30N 44°39' E 037°54'0 0.0
2017-Nov-30 03:00N 44°39' E 037°54'0 0.1
2017-Nov-30 02:30N 44°39' E 037°54'0 0.0
2017-Nov-30 02:00N 44°39' E 037°54'0 0.0
2017-Nov-30 01:30N 44°39' E 037°54'0 0.0
2017-Nov-30 01:00N 44°39' E 037°54'0 0.0
2017-Nov-30 00:27N 44°39' E 037°54'0 0.0
2017-Nov-30 00:00N 44°39' E 037°54'0 0.0
2017-Nov-29 23:30N 44°39' E 037°54'0 0.0
2017-Nov-29 23:00N 44°39' E 037°54'0 0.1
2017-Nov-29 22:30N 44°39' E 037°54'0 0.0
2017-Nov-29 22:00N 44°39' E 037°54'0 0.0
2017-Nov-29 21:30N 44°39' E 037°54'0 0.1
2017-Nov-29 21:00N 44°39' E 037°54'0 0.0
2017-Nov-29 20:30N 44°39' E 037°54'0 0.0
2017-Nov-29 19:54N 44°39' E 037°54'0 0.0
2017-Nov-29 19:30N 44°39' E 037°54'0 0.0
2017-Nov-29 19:00N 44°39' E 037°54'0 0.0
2017-Nov-29 18:28N 44°39' E 037°54'0 0.0
2017-Nov-29 18:00N 44°39' E 037°54'0 0.0
2017-Nov-29 17:30N 44°39' E 037°54'0 0.0
2017-Nov-29 17:00N 44°39' E 037°54'0 0.0
2017-Nov-29 16:30N 44°39' E 037°54'0 0.0
2017-Nov-29 16:00N 44°39' E 037°54'0 0.0
2017-Nov-29 15:30N 44°39' E 037°54'0 0.0
2017-Nov-29 15:00N 44°39' E 037°54'0 0.0
2017-Nov-29 14:30N 44°39' E 037°54'0 0.0
2017-Nov-29 14:00N 44°39' E 037°54'0 0.0
2017-Nov-29 13:30N 44°39' E 037°54'0 0.0
2017-Nov-29 13:00N 44°39' E 037°54'0 0.1
2017-Nov-29 12:30N 44°39' E 037°54'2 4.6
2017-Nov-29 12:00N 44°37' E 037°52'4 8.7
2017-Nov-29 11:30N 44°33' E 037°52'4 7.4
2017-Nov-29 11:00N 44°31' E 037°47'3 6.4
2017-Nov-29 10:30N 44°29' E 037°43'3 6.4
2017-Nov-29 10:00N 44°28' E 037°39'  

Dump ship's entire track history